createdAt,value
2023-02-13T00:03:21.455Z,23.55
2023-02-13T00:08:23.145Z,24.95
2023-02-13T00:13:24.758Z,24.88
2023-02-13T00:18:27.777Z,22.80
2023-02-13T00:23:31.620Z,21.33
2023-02-13T00:28:33.528Z,22.35
2023-02-13T00:33:35.698Z,23.73
2023-02-13T00:38:38.813Z,22.67
2023-02-13T00:43:40.695Z,22.40
2023-02-13T00:48:42.380Z,22.33
2023-02-13T00:53:43.986Z,22.52
2023-02-13T00:58:46.055Z,20.85
2023-02-13T01:03:47.740Z,25.30
2023-02-13T01:08:49.427Z,20.67
2023-02-13T01:13:51.026Z,24.20
2023-02-13T01:18:52.619Z,23.35
2023-02-13T01:23:54.223Z,21.73
2023-02-13T01:28:57.788Z,24.20
2023-02-13T01:33:59.923Z,21.33
2023-02-13T01:39:01.651Z,23.08
2023-02-13T01:44:03.814Z,22.58
2023-02-13T01:49:23.674Z,22.45
2023-02-13T01:54:31.422Z,24.13
2023-02-13T01:59:55.192Z,18.30
2023-02-13T02:04:56.800Z,20.35
2023-02-13T02:10:07.637Z,21.23
2023-02-13T02:15:09.971Z,21.95
2023-02-13T02:20:20.463Z,22.35
2023-02-13T02:25:53.036Z,24.30
2023-02-13T02:31:06.593Z,22.23
2023-02-13T02:36:57.079Z,20.92
2023-02-13T02:42:11.776Z,22.05
2023-02-13T02:47:42.803Z,22.27
2023-02-13T02:53:02.438Z,20.43
2023-02-13T02:58:38.800Z,25.25
2023-02-13T03:03:59.535Z,27.20
2023-02-13T03:09:22.754Z,28.57
2023-02-13T03:14:27.394Z,26.25
2023-02-13T03:20:16.555Z,31.20
2023-02-13T03:25:30.375Z,28.20
2023-02-13T03:30:49.762Z,29.05
2023-02-13T03:36:28.828Z,32.78
2023-02-13T03:41:52.777Z,39.72
2023-02-13T03:46:58.486Z,35.83
2023-02-13T03:52:16.206Z,48.22
2023-02-13T03:57:40.274Z,48.20
2023-02-13T04:02:54.935Z,37.45
2023-02-13T04:07:56.873Z,37.42
2023-02-13T04:13:24.009Z,36.92
2023-02-13T04:18:30.783Z,41.88
2023-02-13T04:23:32.840Z,51.85
2023-02-13T04:28:34.506Z,53.95
2023-02-13T04:33:36.112Z,57.05
2023-02-13T04:38:37.697Z,31.50
2023-02-13T04:43:39.366Z,33.78
2023-02-13T04:48:40.984Z,43.53
2023-02-13T04:53:42.588Z,32.78
2023-02-13T04:58:44.175Z,91.03
2023-02-13T05:03:46.002Z,65.38
2023-02-13T05:08:47.689Z,36.30
2023-02-13T05:13:49.281Z,29.92
2023-02-13T05:18:54.900Z,71.95
2023-02-13T05:23:56.562Z,52.15
2023-02-13T05:29:16.660Z,179.82
2023-02-13T05:34:18.754Z,608.13
2023-02-13T05:39:20.764Z,213.80
2023-02-13T05:44:22.419Z,355.45
2023-02-13T05:49:24.071Z,450.42
2023-02-13T05:54:25.753Z,595.95
2023-02-13T05:59:27.366Z,506.58
2023-02-13T06:04:28.980Z,337.67
2023-02-13T06:09:30.624Z,338.17
2023-02-13T06:14:32.277Z,207.60
2023-02-13T06:19:33.936Z,303.25
2023-02-13T06:24:35.558Z,247.45
2023-02-13T06:29:37.181Z,460.33
2023-02-13T06:34:38.764Z,490.40
2023-02-13T06:39:40.369Z,535.33
2023-02-13T06:44:41.987Z,543.30
2023-02-13T06:49:43.561Z,641.22
2023-02-13T06:54:47.943Z,663.67
2023-02-13T06:59:49.823Z,629.10
2023-02-13T07:04:51.470Z,697.50
2023-02-13T07:09:53.030Z,675.50
2023-02-13T07:14:54.686Z,579.30
2023-02-13T07:19:56.362Z,559.75
2023-02-13T07:24:59.088Z,431.15
2023-02-13T07:30:00.785Z,853.72
2023-02-13T07:35:02.834Z,693.30
2023-02-13T07:40:06.488Z,546.17
2023-02-13T07:45:08.904Z,582.05
2023-02-13T07:50:11.829Z,600.33
2023-02-13T07:55:13.458Z,320.85
2023-02-13T08:00:18.387Z,453.38
2023-02-13T08:05:24.738Z,336.88
2023-02-13T08:10:46.750Z,284.23
2023-02-13T08:15:48.678Z,322.45
2023-02-13T08:20:50.302Z,294.35
2023-02-13T08:25:52.449Z,485.75
2023-02-13T08:30:55.452Z,186.68
2023-02-13T08:35:57.372Z,380.67
2023-02-13T08:40:59.567Z,416.67
2023-02-13T08:46:01.668Z,493.35
2023-02-13T08:51:11.514Z,560.10
2023-02-13T08:56:13.235Z,755.58
2023-02-13T09:01:15.078Z,275.27
2023-02-13T09:06:16.920Z,325.98
2023-02-13T09:11:19.817Z,431.13
2023-02-13T09:16:22.518Z,208.40
2023-02-13T09:21:24.222Z,519.30
2023-02-13T09:26:25.872Z,348.52
2023-02-13T09:31:29.542Z,328.95
2023-02-13T09:36:31.485Z,392.15
2023-02-13T09:41:37.672Z,221.90
2023-02-13T09:46:41.053Z,113.38
2023-02-13T09:51:50.442Z,36.13
2023-02-13T09:57:02.020Z,29.92
2023-02-13T10:02:41.622Z,25.63
2023-02-13T10:07:51.261Z,25.00
2023-02-13T10:12:58.693Z,25.98
2023-02-13T10:18:05.403Z,22.35
2023-02-13T10:23:28.815Z,22.38
2023-02-13T10:28:33.608Z,23.45
2023-02-13T10:33:39.612Z,23.33
2023-02-13T10:39:03.112Z,20.65
2023-02-13T10:44:41.551Z,20.95
2023-02-13T10:49:52.806Z,19.52
2023-02-13T10:55:13.060Z,18.17
2023-02-13T11:00:38.941Z,18.27
2023-02-13T11:05:51.405Z,16.23
2023-02-13T11:10:53.614Z,19.35
2023-02-13T11:16:02.746Z,18.15
2023-02-13T11:21:17.875Z,17.13
2023-02-13T11:26:28.490Z,17.73
2023-02-13T11:31:32.657Z,15.52
2023-02-13T11:36:34.475Z,15.38
2023-02-13T11:41:42.306Z,14.30
2023-02-13T11:46:47.948Z,12.93
2023-02-13T11:51:54.544Z,13.80
2023-02-13T11:57:04.833Z,11.85
2023-02-13T12:02:21.276Z,14.18
2023-02-13T12:07:25.268Z,14.02
2023-02-13T12:12:36.746Z,13.10
2023-02-13T12:17:40.800Z,13.13
2023-02-13T12:23:09.770Z,16.77
2023-02-13T12:28:13.996Z,13.45
2023-02-13T12:33:21.763Z,15.20
2023-02-13T12:38:35.006Z,15.23
2023-02-13T12:44:20.629Z,12.38
2023-02-13T12:50:01.321Z,11.82
2023-02-13T12:55:21.456Z,12.73
2023-02-13T13:00:41.367Z,12.27
2023-02-13T13:06:14.475Z,13.40
2023-02-13T13:11:38.241Z,11.70
2023-02-13T13:16:57.447Z,12.60
2023-02-13T13:22:15.079Z,14.85
2023-02-13T13:27:26.272Z,10.60
2023-02-13T13:32:30.067Z,10.80
2023-02-13T13:37:42.829Z,9.38
2023-02-13T13:43:28.460Z,11.18
2023-02-13T13:48:51.931Z,13.15
2023-02-13T13:54:05.479Z,10.70
2023-02-13T13:59:17.285Z,9.70
2023-02-13T14:04:36.694Z,10.55
2023-02-13T14:09:43.233Z,9.15
2023-02-13T14:14:45.805Z,9.75
2023-02-13T14:19:52.891Z,12.43
2023-02-13T14:25:05.357Z,9.23
2023-02-13T14:30:27.479Z,9.15
2023-02-13T14:35:38.021Z,7.45
2023-02-13T14:40:49.904Z,9.65
2023-02-13T14:46:03.959Z,7.68
2023-02-13T14:51:06.401Z,7.32
2023-02-13T14:56:14.561Z,6.50
2023-02-13T15:01:32.425Z,6.10
2023-02-13T15:06:39.583Z,6.28
2023-02-13T15:11:43.454Z,8.30
2023-02-13T15:16:52.512Z,7.90
2023-02-13T15:21:57.362Z,5.47
2023-02-13T15:27:07.206Z,5.97
2023-02-13T15:32:19.827Z,5.37
2023-02-13T15:37:23.823Z,4.05
2023-02-13T15:42:25.442Z,6.15
2023-02-13T15:47:31.663Z,3.95
2023-02-13T15:52:36.878Z,3.75
2023-02-13T15:57:39.442Z,7.57
2023-02-13T16:02:46.226Z,5.63
2023-02-13T16:07:48.825Z,5.10
2023-02-13T16:12:50.475Z,4.68
2023-02-13T16:17:52.385Z,8.15
2023-02-13T16:23:03.262Z,8.02
2023-02-13T16:28:22.344Z,7.47
2023-02-13T16:33:44.606Z,10.77
2023-02-13T16:38:48.551Z,17.40
2023-02-13T16:43:53.854Z,15.75
2023-02-13T16:48:59.151Z,14.10
2023-02-13T16:54:03.893Z,13.20
2023-02-13T16:59:17.351Z,9.38
2023-02-13T17:04:24.119Z,9.75
2023-02-13T17:09:25.869Z,11.82
2023-02-13T17:14:27.531Z,12.25
2023-02-13T17:19:29.863Z,15.35
2023-02-13T17:24:31.728Z,11.30
2023-02-13T17:29:33.325Z,9.30
2023-02-13T17:34:34.895Z,8.15
2023-02-13T17:39:36.520Z,8.32
2023-02-13T17:44:38.134Z,12.02
2023-02-13T17:49:39.796Z,14.65
2023-02-13T17:54:41.595Z,12.50
2023-02-13T17:59:44.005Z,12.10
2023-02-13T18:04:46.616Z,12.80
2023-02-13T18:09:48.210Z,12.02
2023-02-13T18:14:51.021Z,8.27
2023-02-13T18:19:52.651Z,13.80
2023-02-13T18:24:54.323Z,12.52
2023-02-13T18:29:56.451Z,42.85
2023-02-13T18:34:58.105Z,61.67
2023-02-13T18:39:59.824Z,41.30
2023-02-13T18:45:01.761Z,84.28
2023-02-13T18:50:04.307Z,70.70
2023-02-13T18:55:09.448Z,34.58
2023-02-13T19:00:12.746Z,23.42
2023-02-13T19:05:14.520Z,16.20
2023-02-13T19:10:16.193Z,18.23
2023-02-13T19:15:17.916Z,16.40
2023-02-13T19:20:19.947Z,10.98
2023-02-13T19:25:22.419Z,8.20
2023-02-13T19:30:24.166Z,16.02
2023-02-13T19:35:25.949Z,14.43
2023-02-13T19:40:28.032Z,16.33
2023-02-13T19:45:29.661Z,12.10
2023-02-13T19:50:31.231Z,14.27
2023-02-13T19:55:32.844Z,13.60
2023-02-13T20:00:34.555Z,18.00
2023-02-13T20:05:40.079Z,11.23
2023-02-13T20:10:45.821Z,16.17
2023-02-13T20:15:47.865Z,11.50
2023-02-13T20:20:49.577Z,11.80
2023-02-13T20:25:51.538Z,11.40
2023-02-13T20:30:53.660Z,8.10
2023-02-13T20:35:56.143Z,12.50
2023-02-13T20:40:58.696Z,11.70
2023-02-13T20:46:01.562Z,10.20
2023-02-13T20:51:05.995Z,9.90
2023-02-13T20:56:19.115Z,9.77
2023-02-13T21:01:30.378Z,11.55
2023-02-13T21:06:34.929Z,10.73
2023-02-13T21:11:38.467Z,12.25
2023-02-13T21:16:41.716Z,12.93
2023-02-13T21:21:44.313Z,10.48
2023-02-13T21:26:47.261Z,11.15
2023-02-13T21:31:49.018Z,9.80
2023-02-13T21:36:50.688Z,11.63
2023-02-13T21:41:52.287Z,10.15
2023-02-13T21:46:54.197Z,10.30
2023-02-13T21:51:55.877Z,13.85
2023-02-13T21:56:57.525Z,12.65
2023-02-13T22:02:00.199Z,18.92
2023-02-13T22:07:02.156Z,19.52
2023-02-13T22:12:04.408Z,17.38
2023-02-13T22:17:06.134Z,12.27
2023-02-13T22:22:08.978Z,13.25
2023-02-13T22:27:10.630Z,23.02
2023-02-13T22:32:12.344Z,17.75
2023-02-13T22:37:14.023Z,12.40
2023-02-13T22:42:16.081Z,14.57
2023-02-13T22:47:17.636Z,14.68
2023-02-13T22:52:19.253Z,14.63
2023-02-13T22:57:20.823Z,14.20
2023-02-13T23:02:22.447Z,17.25
2023-02-13T23:07:24.069Z,11.27
2023-02-13T23:12:39.163Z,12.55
2023-02-13T23:18:00.442Z,19.15
2023-02-13T23:23:04.655Z,19.23
2023-02-13T23:28:06.983Z,12.60
2023-02-13T23:33:08.608Z,19.63
2023-02-13T23:38:10.271Z,18.85
2023-02-13T23:43:12.197Z,17.50
2023-02-13T23:48:13.874Z,17.85
2023-02-13T23:53:15.490Z,18.73
2023-02-13T23:58:17.131Z,19.08
